sensor_id;sensor_type;location;lat;lon;timestamp;temperature;humidity
65752;DHT22;52486;51.098;13.770;2023-04-06T00:00:55;22.50;55.30
65752;DHT22;52486;51.098;13.770;2023-04-06T00:03:20;22.40;55.10
65752;DHT22;52486;51.098;13.770;2023-04-06T00:05:47;21.40;55.30
65752;DHT22;52486;51.098;13.770;2023-04-06T00:08:13;23.00;48.70
65752;DHT22;52486;51.098;13.770;2023-04-06T00:13:05;23.50;55.70
65752;DHT22;52486;51.098;13.770;2023-04-06T00:15:31;22.90;48.90
65752;DHT22;52486;51.098;13.770;2023-04-06T00:17:57;22.60;55.30
65752;DHT22;52486;51.098;13.770;2023-04-06T00:20:23;22.40;55.70
65752;DHT22;52486;51.098;13.770;2023-04-06T00:22:48;22.50;55.20
65752;DHT22;52486;51.098;13.770;2023-04-06T00:25:14;22.90;48.90
65752;DHT22;52486;51.098;13.770;2023-04-06T00:27:41;22.20;55.10
65752;DHT22;52486;51.098;13.770;2023-04-06T00:30:07;22.80;48.90
65752;DHT22;52486;51.098;13.770;2023-04-06T00:32:34;22.80;48.30
65752;DHT22;52486;51.098;13.770;2023-04-06T00:35:03;22.60;55.10
65752;DHT22;52486;51.098;13.770;2023-04-06T00:37:29;23.00;55.50
65752;DHT22;52486;51.098;13.770;2023-04-06T00:39:54;23.90;56.10
65752;DHT22;52486;51.098;13.770;2023-04-06T00:42:21;23.10;49.00
65752;DHT22;52486;51.098;13.770;2023-04-06T00:44:56;23.10;55.50
65752;DHT22;52486;51.098;13.770;2023-04-06T00:47:22;22.20;54.90
65752;DHT22;52486;51.098;13.770;2023-04-06T00:49:48;22.80;48.70
65752;DHT22;52486;51.098;13.770;2023-04-06T00:52:15;22.90;48.90
65752;DHT22;52486;51.098;13.770;2023-04-06T00:54:41;21.80;55.40
65752;DHT22;52486;51.098;13.770;2023-04-06T00:59:33;23.10;55.70
65752;DHT22;52486;51.098;13.770;2023-04-06T01:01:58;22.40;55.60
65752;DHT22;52486;51.098;13.770;2023-04-06T01:04:24;23.00;49.00
65752;DHT22;52486;51.098;13.770;2023-04-06T01:06:50;22.70;55.30
65752;DHT22;52486;51.098;13.770;2023-04-06T01:09:19;23.00;56.00
65752;DHT22;52486;51.098;13.770;2023-04-06T01:11:45;22.60;55.30
65752;DHT22;52486;51.098;13.770;2023-04-06T01:14:10;22.70;56.10
65752;DHT22;52486;51.098;13.770;2023-04-06T01:16:36;22.10;55.00
65752;DHT22;52486;51.098;13.770;2023-04-06T01:19:12;23.50;56.00
65752;DHT22;52486;51.098;13.770;2023-04-06T01:21:39;22.60;56.40
65752;DHT22;52486;51.098;13.770;2023-04-06T01:24:05;22.60;55.20
65752;DHT22;52486;51.098;13.770;2023-04-06T01:26:32;22.80;55.80
65752;DHT22;52486;51.098;13.770;2023-04-06T01:28:58;23.10;55.50
65752;DHT22;52486;51.098;13.770;2023-04-06T01:31:25;21.90;55.10
65752;DHT22;52486;51.098;13.770;2023-04-06T01:33:52;22.00;55.10
65752;DHT22;52486;51.098;13.770;2023-04-06T01:36:18;22.80;48.80
65752;DHT22;52486;51.098;13.770;2023-04-06T01:38:44;22.90;55.40
65752;DHT22;52486;51.098;13.770;2023-04-06T01:41:10;22.70;48.70
65752;DHT22;52486;51.098;13.770;2023-04-06T01:43:36;22.70;49.00
65752;DHT22;52486;51.098;13.770;2023-04-06T01:46:02;22.80;55.60
65752;DHT22;52486;51.098;13.770;2023-04-06T01:48:28;23.00;55.70
65752;DHT22;52486;51.098;13.770;2023-04-06T01:53:21;22.40;55.60
65752;DHT22;52486;51.098;13.770;2023-04-06T01:55:47;22.90;49.10
65752;DHT22;52486;51.098;13.770;2023-04-06T01:58:13;23.90;57.10
65752;DHT22;52486;51.098;13.770;2023-04-06T02:00:40;22.90;55.70
65752;DHT22;52486;51.098;13.770;2023-04-06T02:03:06;22.00;55.30
65752;DHT22;52486;51.098;13.770;2023-04-06T02:05:32;23.00;55.70
65752;DHT22;52486;51.098;13.770;2023-04-06T02:08:07;23.20;55.80
65752;DHT22;52486;51.098;13.770;2023-04-06T02:10:33;22.90;56.10
65752;DHT22;52486;51.098;13.770;2023-04-06T02:12:59;23.90;56.80
65752;DHT22;52486;51.098;13.770;2023-04-06T02:15:25;22.30;55.50
65752;DHT22;52486;51.098;13.770;2023-04-06T02:17:51;22.00;55.40
65752;DHT22;52486;51.098;13.770;2023-04-06T02:20:17;23.00;55.80
65752;DHT22;52486;51.098;13.770;2023-04-06T02:22:43;22.50;49.10
65752;DHT22;52486;51.098;13.770;2023-04-06T02:25:09;22.10;55.40
65752;DHT22;52486;51.098;13.770;2023-04-06T02:27:35;23.80;56.80
65752;DHT22;52486;51.098;13.770;2023-04-06T02:30:02;23.00;56.20
65752;DHT22;52486;51.098;13.770;2023-04-06T02:32:28;22.70;49.90
65752;DHT22;52486;51.098;13.770;2023-04-06T02:34:53;22.50;49.10
65752;DHT22;52486;51.098;13.770;2023-04-06T02:37:19;22.10;55.60
65752;DHT22;52486;51.098;13.770;2023-04-06T02:39:45;22.10;55.50
65752;DHT22;52486;51.098;13.770;2023-04-06T02:42:11;22.70;49.20
65752;DHT22;52486;51.098;13.770;2023-04-06T02:44:37;21.90;55.40
65752;DHT22;52486;51.098;13.770;2023-04-06T02:47:02;22.30;55.80
65752;DHT22;52486;51.098;13.770;2023-04-06T02:54:20;22.40;46.40
65752;DHT22;52486;51.098;13.770;2023-04-06T02:56:46;22.10;55.60
65752;DHT22;52486;51.098;13.770;2023-04-06T02:59:12;23.60;56.70
65752;DHT22;52486;51.098;13.770;2023-04-06T03:01:37;23.80;57.40
65752;DHT22;52486;51.098;13.770;2023-04-06T03:04:04;21.90;55.80
65752;DHT22;52486;51.098;13.770;2023-04-06T03:06:29;22.70;49.40
65752;DHT22;52486;51.098;13.770;2023-04-06T03:08:55;23.40;56.30
65752;DHT22;52486;51.098;13.770;2023-04-06T03:11:21;22.10;55.70
65752;DHT22;52486;51.098;13.770;2023-04-06T03:13:47;22.00;55.40
65752;DHT22;52486;51.098;13.770;2023-04-06T03:16:12;22.40;49.20
65752;DHT22;52486;51.098;13.770;2023-04-06T03:21:04;21.90;55.70
65752;DHT22;52486;51.098;13.770;2023-04-06T03:23:30;22.50;56.50
65752;DHT22;52486;51.098;13.770;2023-04-06T03:25:56;22.00;55.70
65752;DHT22;52486;51.098;13.770;2023-04-06T03:28:21;21.70;55.50
65752;DHT22;52486;51.098;13.770;2023-04-06T03:30:47;22.40;49.00
65752;DHT22;52486;51.098;13.770;2023-04-06T03:33:13;22.60;49.30
65752;DHT22;52486;51.098;13.770;2023-04-06T03:35:38;22.20;55.50
65752;DHT22;52486;51.098;13.770;2023-04-06T03:38:04;22.30;48.90
65752;DHT22;52486;51.098;13.770;2023-04-06T03:40:30;22.40;56.90
65752;DHT22;52486;51.098;13.770;2023-04-06T03:45:22;22.60;46.70
65752;DHT22;52486;51.098;13.770;2023-04-06T03:50:14;22.00;55.40
65752;DHT22;52486;51.098;13.770;2023-04-06T03:52:40;22.40;55.70
65752;DHT22;52486;51.098;13.770;2023-04-06T03:55:07;22.00;55.80
65752;DHT22;52486;51.098;13.770;2023-04-06T03:57:33;22.80;56.00
65752;DHT22;52486;51.098;13.770;2023-04-06T03:59:58;22.80;56.00
65752;DHT22;52486;51.098;13.770;2023-04-06T04:02:25;22.40;49.10
65752;DHT22;52486;51.098;13.770;2023-04-06T04:04:50;22.00;55.80
65752;DHT22;52486;51.098;13.770;2023-04-06T04:09:42;22.40;55.70
65752;DHT22;52486;51.098;13.770;2023-04-06T04:12:08;21.70;55.60
65752;DHT22;52486;51.098;13.770;2023-04-06T04:14:33;21.70;55.50
65752;DHT22;52486;51.098;13.770;2023-04-06T04:16:59;21.90;55.70
65752;DHT22;52486;51.098;13.770;2023-04-06T04:21:51;22.50;56.10
65752;DHT22;52486;51.098;13.770;2023-04-06T04:24:17;21.90;55.70
65752;DHT22;52486;51.098;13.770;2023-04-06T04:29:09;21.80;55.90
65752;DHT22;52486;51.098;13.770;2023-04-06T04:31:35;22.40;49.50
65752;DHT22;52486;51.098;13.770;2023-04-06T04:34:01;22.40;56.20
65752;DHT22;52486;51.098;13.770;2023-04-06T04:36:27;23.20;56.80
65752;DHT22;52486;51.098;13.770;2023-04-06T04:38:53;22.40;56.30
65752;DHT22;52486;51.098;13.770;2023-04-06T04:41:18;23.20;56.70
65752;DHT22;52486;51.098;13.770;2023-04-06T04:43:44;22.40;49.60
65752;DHT22;52486;51.098;13.770;2023-04-06T04:48:37;22.30;47.40
65752;DHT22;52486;51.098;13.770;2023-04-06T04:51:04;23.00;56.90
65752;DHT22;52486;51.098;13.770;2023-04-06T04:53:29;21.60;56.00
65752;DHT22;52486;51.098;13.770;2023-04-06T04:55:55;22.50;56.50
65752;DHT22;52486;51.098;13.770;2023-04-06T05:00:47;21.30;56.00
65752;DHT22;52486;51.098;13.770;2023-04-06T05:03:21;21.90;56.30
65752;DHT22;52486;51.098;13.770;2023-04-06T05:05:47;22.80;57.00
65752;DHT22;52486;51.098;13.770;2023-04-06T05:08:13;21.70;56.60
65752;DHT22;52486;51.098;13.770;2023-04-06T05:10:39;21.90;56.30
65752;DHT22;52486;51.098;13.770;2023-04-06T05:13:05;22.60;56.80
65752;DHT22;52486;51.098;13.770;2023-04-06T05:15:31;21.50;56.10
65752;DHT22;52486;51.098;13.770;2023-04-06T05:17:57;22.00;56.60
65752;DHT22;52486;51.098;13.770;2023-04-06T05:20:22;22.40;50.00
65752;DHT22;52486;51.098;13.770;2023-04-06T05:22:48;22.90;56.90
65752;DHT22;52486;51.098;13.770;2023-04-06T05:25:14;22.20;49.70
65752;DHT22;52486;51.098;13.770;2023-04-06T05:27:41;22.40;56.10
65752;DHT22;52486;51.098;13.770;2023-04-06T05:30:07;22.00;56.50
65752;DHT22;52486;51.098;13.770;2023-04-06T05:32:33;21.60;56.00
65752;DHT22;52486;51.098;13.770;2023-04-06T05:34:59;22.20;48.40
65752;DHT22;52486;51.098;13.770;2023-04-06T05:37:25;21.10;56.60
65752;DHT22;52486;51.098;13.770;2023-04-06T05:39:51;22.90;56.90
65752;DHT22;52486;51.098;13.770;2023-04-06T05:42:17;23.20;55.30
65752;DHT22;52486;51.098;13.770;2023-04-06T05:47:09;21.20;54.30
65752;DHT22;52486;51.098;13.770;2023-04-06T05:49:34;21.10;55.00
65752;DHT22;52486;51.098;13.770;2023-04-06T05:52:00;21.00;54.10
65752;DHT22;52486;51.098;13.770;2023-04-06T05:56:52;21.30;55.80
65752;DHT22;52486;51.098;13.770;2023-04-06T05:59:18;21.30;56.60
65752;DHT22;52486;51.098;13.770;2023-04-06T06:04:10;21.60;56.20
65752;DHT22;52486;51.098;13.770;2023-04-06T06:06:36;21.10;55.80
65752;DHT22;52486;51.098;13.770;2023-04-06T06:09:02;20.40;55.90
65752;DHT22;52486;51.098;13.770;2023-04-06T06:11:29;20.90;56.60
65752;DHT22;52486;51.098;13.770;2023-04-06T06:13:56;20.90;56.70
65752;DHT22;52486;51.098;13.770;2023-04-06T06:16:22;20.60;56.60
65752;DHT22;52486;51.098;13.770;2023-04-06T06:18:48;20.30;56.30
65752;DHT22;52486;51.098;13.770;2023-04-06T06:21:14;20.50;57.60
65752;DHT22;52486;51.098;13.770;2023-04-06T06:23:42;20.00;57.10
65752;DHT22;52486;51.098;13.770;2023-04-06T06:26:08;20.10;58.10
65752;DHT22;52486;51.098;13.770;2023-04-06T06:28:34;20.10;57.20
65752;DHT22;52486;51.098;13.770;2023-04-06T06:31:00;20.90;55.40
65752;DHT22;52486;51.098;13.770;2023-04-06T06:33:26;19.80;55.30
65752;DHT22;52486;51.098;13.770;2023-04-06T06:35:52;20.40;58.20
65752;DHT22;52486;51.098;13.770;2023-04-06T06:38:18;20.90;58.70
65752;DHT22;52486;51.098;13.770;2023-04-06T06:40:45;21.10;58.70
65752;DHT22;52486;51.098;13.770;2023-04-06T06:43:12;20.60;59.40
65752;DHT22;52486;51.098;13.770;2023-04-06T06:45:38;20.20;58.40
65752;DHT22;52486;51.098;13.770;2023-04-06T06:48:04;20.20;58.40
65752;DHT22;52486;51.098;13.770;2023-04-06T06:50:29;21.60;58.80
65752;DHT22;52486;51.098;13.770;2023-04-06T07:00:14;21.50;50.90
65752;DHT22;52486;51.098;13.770;2023-04-06T07:02:40;20.40;58.80
65752;DHT22;52486;51.098;13.770;2023-04-06T07:05:06;21.00;58.80
65752;DHT22;52486;51.098;13.770;2023-04-06T07:07:32;21.60;51.00
65752;DHT22;52486;51.098;13.770;2023-04-06T07:09:59;20.90;57.20
65752;DHT22;52486;51.098;13.770;2023-04-06T07:12:25;21.50;58.30
65752;DHT22;52486;51.098;13.770;2023-04-06T07:14:51;21.60;50.50
65752;DHT22;52486;51.098;13.770;2023-04-06T07:17:17;21.10;57.80
65752;DHT22;52486;51.098;13.770;2023-04-06T07:19:43;21.30;58.80
65752;DHT22;52486;51.098;13.770;2023-04-06T07:22:08;21.40;58.30
65752;DHT22;52486;51.098;13.770;2023-04-06T07:24:34;21.40;58.20
65752;DHT22;52486;51.098;13.770;2023-04-06T07:27:00;21.60;58.40
65752;DHT22;52486;51.098;13.770;2023-04-06T07:29:28;21.90;51.80
65752;DHT22;52486;51.098;13.770;2023-04-06T07:31:55;21.40;58.00
65752;DHT22;52486;51.098;13.770;2023-04-06T07:34:21;21.70;58.00
65752;DHT22;52486;51.098;13.770;2023-04-06T07:36:47;22.20;58.50
65752;DHT22;52486;51.098;13.770;2023-04-06T07:39:14;21.50;49.30
65752;DHT22;52486;51.098;13.770;2023-04-06T07:41:40;21.50;58.00
65752;DHT22;52486;51.098;13.770;2023-04-06T07:44:07;21.40;57.70
65752;DHT22;52486;51.098;13.770;2023-04-06T07:46:32;22.10;51.90
65752;DHT22;52486;51.098;13.770;2023-04-06T07:48:59;21.40;57.70
65752;DHT22;52486;51.098;13.770;2023-04-06T07:51:26;21.80;57.60
65752;DHT22;52486;51.098;13.770;2023-04-06T07:53:52;23.00;58.20
65752;DHT22;52486;51.098;13.770;2023-04-06T07:56:18;21.90;57.70
65752;DHT22;52486;51.098;13.770;2023-04-06T07:58:44;22.90;57.90
65752;DHT22;52486;51.098;13.770;2023-04-06T08:01:10;22.00;57.40
65752;DHT22;52486;51.098;13.770;2023-04-06T08:03:36;23.20;58.00
65752;DHT22;52486;51.098;13.770;2023-04-06T08:06:02;22.30;54.10
65752;DHT22;52486;51.098;13.770;2023-04-06T08:08:28;22.60;57.40
65752;DHT22;52486;51.098;13.770;2023-04-06T08:10:55;22.60;49.30
65752;DHT22;52486;51.098;13.770;2023-04-06T08:13:20;23.00;58.50
65752;DHT22;52486;51.098;13.770;2023-04-06T08:15:46;22.50;50.80
65752;DHT22;52486;51.098;13.770;2023-04-06T08:18:12;23.60;58.30
65752;DHT22;52486;51.098;13.770;2023-04-06T08:20:39;22.90;57.80
65752;DHT22;52486;51.098;13.770;2023-04-06T08:23:05;22.50;57.10
65752;DHT22;52486;51.098;13.770;2023-04-06T08:25:33;23.10;58.00
65752;DHT22;52486;51.098;13.770;2023-04-06T08:27:59;22.30;56.80
65752;DHT22;52486;51.098;13.770;2023-04-06T08:30:25;22.00;57.50
65752;DHT22;52486;51.098;13.770;2023-04-06T08:32:50;22.40;56.60
65752;DHT22;52486;51.098;13.770;2023-04-06T08:35:16;22.30;56.90
65752;DHT22;52486;51.098;13.770;2023-04-06T08:37:42;23.60;57.50
65752;DHT22;52486;51.098;13.770;2023-04-06T08:40:08;23.90;57.70
65752;DHT22;52486;51.098;13.770;2023-04-06T08:42:39;23.00;49.90
65752;DHT22;52486;51.098;13.770;2023-04-06T08:45:06;22.60;56.80
65752;DHT22;52486;51.098;13.770;2023-04-06T08:47:34;23.40;58.30
65752;DHT22;52486;51.098;13.770;2023-04-06T08:50:04;23.70;57.40
65752;DHT22;52486;51.098;13.770;2023-04-06T08:52:31;23.60;57.50
65752;DHT22;52486;51.098;13.770;2023-04-06T08:54:57;22.70;57.00
65752;DHT22;52486;51.098;13.770;2023-04-06T08:57:24;24.10;57.80
65752;DHT22;52486;51.098;13.770;2023-04-06T08:59:51;24.00;50.40
65752;DHT22;52486;51.098;13.770;2023-04-06T09:02:18;23.00;56.60
65752;DHT22;52486;51.098;13.770;2023-04-06T09:04:47;22.80;56.50
65752;DHT22;52486;51.098;13.770;2023-04-06T09:07:14;23.00;56.70
65752;DHT22;52486;51.098;13.770;2023-04-06T09:09:40;22.90;56.60
65752;DHT22;52486;51.098;13.770;2023-04-06T09:12:23;24.40;57.20
65752;DHT22;52486;51.098;13.770;2023-04-06T09:14:48;23.80;56.90
65752;DHT22;52486;51.098;13.770;2023-04-06T09:17:32;23.00;56.70
65752;DHT22;52486;51.098;13.770;2023-04-06T09:20:02;23.70;56.80
65752;DHT22;52486;51.098;13.770;2023-04-06T09:22:41;23.20;56.40
65752;DHT22;52486;51.098;13.770;2023-04-06T09:25:08;24.30;56.90
65752;DHT22;52486;51.098;13.770;2023-04-06T09:27:37;23.20;56.80
65752;DHT22;52486;51.098;13.770;2023-04-06T09:30:05;24.70;57.20
65752;DHT22;52486;51.098;13.770;2023-04-06T09:32:31;24.20;57.20
65752;DHT22;52486;51.098;13.770;2023-04-06T09:35:08;23.50;56.20
65752;DHT22;52486;51.098;13.770;2023-04-06T09:37:34;24.00;50.00
65752;DHT22;52486;51.098;13.770;2023-04-06T09:40:04;23.80;56.60
65752;DHT22;52486;51.098;13.770;2023-04-06T09:42:30;25.00;58.30
65752;DHT22;52486;51.098;13.770;2023-04-06T09:44:56;23.70;56.30
65752;DHT22;52486;51.098;13.770;2023-04-06T09:47:22;24.20;50.10
65752;DHT22;52486;51.098;13.770;2023-04-06T09:49:56;24.10;56.50
65752;DHT22;52486;51.098;13.770;2023-04-06T09:52:26;23.30;56.70
65752;DHT22;52486;51.098;13.770;2023-04-06T09:54:55;24.50;50.30
65752;DHT22;52486;51.098;13.770;2023-04-06T09:57:58;24.40;50.30
65752;DHT22;52486;51.098;13.770;2023-04-06T10:00:28;24.30;48.60
65752;DHT22;52486;51.098;13.770;2023-04-06T10:03:14;25.70;57.90
65752;DHT22;52486;51.098;13.770;2023-04-06T10:05:48;25.40;57.50
65752;DHT22;52486;51.098;13.770;2023-04-06T10:08:16;24.90;56.50
65752;DHT22;52486;51.098;13.770;2023-04-06T10:10:43;24.10;56.60
65752;DHT22;52486;51.098;13.770;2023-04-06T10:13:11;24.70;54.40
65752;DHT22;52486;51.098;13.770;2023-04-06T10:15:38;23.80;59.00
65752;DHT22;52486;51.098;13.770;2023-04-06T10:18:04;24.30;52.40
65752;DHT22;52486;51.098;13.770;2023-04-06T10:20:47;24.20;51.00
65752;DHT22;52486;51.098;13.770;2023-04-06T10:23:29;24.90;64.80
65752;DHT22;52486;51.098;13.770;2023-04-06T10:25:57;23.80;63.80
65752;DHT22;52486;51.098;13.770;2023-04-06T10:30:57;24.30;53.20
65752;DHT22;52486;51.098;13.770;2023-04-06T10:33:23;23.50;64.10
65752;DHT22;52486;51.098;13.770;2023-04-06T10:40:46;24.90;64.80
65752;DHT22;52486;51.098;13.770;2023-04-06T10:43:21;24.80;64.70
65752;DHT22;52486;51.098;13.770;2023-04-06T10:45:57;25.50;53.10
65752;DHT22;52486;51.098;13.770;2023-04-06T10:48:23;25.20;64.50
65752;DHT22;52486;51.098;13.770;2023-04-06T10:50:51;24.60;63.60
65752;DHT22;52486;51.098;13.770;2023-04-06T10:53:27;24.80;64.00
65752;DHT22;52486;51.098;13.770;2023-04-06T10:55:55;24.50;53.20
65752;DHT22;52486;51.098;13.770;2023-04-06T10:58:25;24.70;64.00
65752;DHT22;52486;51.098;13.770;2023-04-06T11:00:50;25.60;64.40
65752;DHT22;52486;51.098;13.770;2023-04-06T11:03:17;24.30;61.10
65752;DHT22;52486;51.098;13.770;2023-04-06T11:05:46;23.70;63.40
65752;DHT22;52486;51.098;13.770;2023-04-06T11:08:30;25.10;59.00
65752;DHT22;52486;51.098;13.770;2023-04-06T11:11:08;23.90;63.30
65752;DHT22;52486;51.098;13.770;2023-04-06T11:13:42;24.90;63.70
65752;DHT22;52486;51.098;13.770;2023-04-06T11:18:54;24.50;50.40
65752;DHT22;52486;51.098;13.770;2023-04-06T11:21:40;25.80;64.20
65752;DHT22;52486;51.098;13.770;2023-04-06T11:26:44;23.60;62.70
65752;DHT22;52486;51.098;13.770;2023-04-06T11:29:18;25.90;52.80
65752;DHT22;52486;51.098;13.770;2023-04-06T11:31:49;25.70;55.30
65752;DHT22;52486;51.098;13.770;2023-04-06T11:34:19;24.90;62.40
65752;DHT22;52486;51.098;13.770;2023-04-06T11:36:47;25.10;55.50
65752;DHT22;52486;51.098;13.770;2023-04-06T11:39:23;24.20;52.30
65752;DHT22;52486;51.098;13.770;2023-04-06T11:41:54;24.00;62.10
65752;DHT22;52486;51.098;13.770;2023-04-06T11:44:39;25.40;62.60
65752;DHT22;52486;51.098;13.770;2023-04-06T11:47:07;26.10;63.30
65752;DHT22;52486;51.098;13.770;2023-04-06T11:49:37;23.80;61.60
65752;DHT22;52486;51.098;13.770;2023-04-06T11:52:22;24.80;62.10
65752;DHT22;52486;51.098;13.770;2023-04-06T11:54:50;23.90;61.40
65752;DHT22;52486;51.098;13.770;2023-04-06T11:57:17;25.30;51.70
65752;DHT22;52486;51.098;13.770;2023-04-06T12:02:09;24.80;61.80
65752;DHT22;52486;51.098;13.770;2023-04-06T12:04:36;26.40;62.90
65752;DHT22;52486;51.098;13.770;2023-04-06T12:07:03;24.40;51.40
65752;DHT22;52486;51.098;13.770;2023-04-06T12:14:21;25.60;50.50
65752;DHT22;52486;51.098;13.770;2023-04-06T12:16:47;25.80;61.60
65752;DHT22;52486;51.098;13.770;2023-04-06T12:21:39;24.70;60.90
65752;DHT22;52486;51.098;13.770;2023-04-06T12:24:06;26.40;51.70
65752;DHT22;52486;51.098;13.770;2023-04-06T12:26:32;25.00;58.60
65752;DHT22;52486;51.098;13.770;2023-04-06T12:28:59;26.00;58.90
65752;DHT22;52486;51.098;13.770;2023-04-06T12:33:58;25.60;58.00
65752;DHT22;52486;51.098;13.770;2023-04-06T12:38:50;25.80;46.00
65752;DHT22;52486;51.098;13.770;2023-04-06T12:41:17;25.60;45.10
65752;DHT22;52486;51.098;13.770;2023-04-06T12:43:43;25.50;48.90
65752;DHT22;52486;51.098;13.770;2023-04-06T12:46:09;26.80;57.30
65752;DHT22;52486;51.098;13.770;2023-04-06T12:48:35;24.80;56.20
65752;DHT22;52486;51.098;13.770;2023-04-06T12:51:04;27.00;57.20
65752;DHT22;52486;51.098;13.770;2023-04-06T12:53:30;26.80;57.10
65752;DHT22;52486;51.098;13.770;2023-04-06T12:55:57;26.40;57.00
65752;DHT22;52486;51.098;13.770;2023-04-06T12:58:23;25.90;45.50
65752;DHT22;52486;51.098;13.770;2023-04-06T13:00:52;26.40;56.60
65752;DHT22;52486;51.098;13.770;2023-04-06T13:03:18;27.20;56.50
65752;DHT22;52486;51.098;13.770;2023-04-06T13:05:48;25.20;54.30
65752;DHT22;52486;51.098;13.770;2023-04-06T13:08:14;25.60;53.90
65752;DHT22;52486;51.098;13.770;2023-04-06T13:10:47;25.30;53.50
65752;DHT22;52486;51.098;13.770;2023-04-06T13:13:17;25.50;53.60
65752;DHT22;52486;51.098;13.770;2023-04-06T13:15:44;26.00;45.20
65752;DHT22;52486;51.098;13.770;2023-04-06T13:25:29;24.90;52.40
65752;DHT22;52486;51.098;13.770;2023-04-06T13:27:55;24.90;52.40
65752;DHT22;52486;51.098;13.770;2023-04-06T13:30:21;26.30;53.60
65752;DHT22;52486;51.098;13.770;2023-04-06T13:35:13;25.90;53.30
65752;DHT22;52486;51.098;13.770;2023-04-06T13:40:05;26.90;55.50
65752;DHT22;52486;51.098;13.770;2023-04-06T13:42:32;25.40;53.10
65752;DHT22;52486;51.098;13.770;2023-04-06T13:44:58;25.30;53.30
65752;DHT22;52486;51.098;13.770;2023-04-06T13:49:51;26.20;54.20
65752;DHT22;52486;51.098;13.770;2023-04-06T13:52:18;25.00;52.60
65752;DHT22;52486;51.098;13.770;2023-04-06T13:57:10;24.50;51.40
65752;DHT22;52486;51.098;13.770;2023-04-06T13:59:37;24.90;41.70
65752;DHT22;52486;51.098;13.770;2023-04-06T14:02:04;25.70;43.90
65752;DHT22;52486;51.098;13.770;2023-04-06T14:04:30;24.00;53.10
65752;DHT22;52486;51.098;13.770;2023-04-06T14:06:57;24.50;43.90
65752;DHT22;52486;51.098;13.770;2023-04-06T14:09:23;24.30;54.10
65752;DHT22;52486;51.098;13.770;2023-04-06T14:14:15;23.80;54.40
65752;DHT22;52486;51.098;13.770;2023-04-06T14:16:42;24.20;54.10
65752;DHT22;52486;51.098;13.770;2023-04-06T14:19:12;25.90;46.00
65752;DHT22;52486;51.098;13.770;2023-04-06T14:21:39;25.20;54.50
65752;DHT22;52486;51.098;13.770;2023-04-06T14:24:08;26.60;49.60
65752;DHT22;52486;51.098;13.770;2023-04-06T14:26:35;25.00;43.80
65752;DHT22;52486;51.098;13.770;2023-04-06T14:29:01;24.40;53.10
65752;DHT22;52486;51.098;13.770;2023-04-06T14:41:17;26.10;53.30
65752;DHT22;52486;51.098;13.770;2023-04-06T14:48:36;24.20;52.00
65752;DHT22;52486;51.098;13.770;2023-04-06T14:58:21;25.10;51.30
65752;DHT22;52486;51.098;13.770;2023-04-06T15:00:48;25.00;50.90
65752;DHT22;52486;51.098;13.770;2023-04-06T15:03:14;24.50;50.70
65752;DHT22;52486;51.098;13.770;2023-04-06T15:05:40;24.40;50.80
65752;DHT22;52486;51.098;13.770;2023-04-06T15:10:32;24.50;50.50
65752;DHT22;52486;51.098;13.770;2023-04-06T15:15:24;24.70;50.90
65752;DHT22;52486;51.098;13.770;2023-04-06T15:25:08;27.20;52.00
65752;DHT22;52486;51.098;13.770;2023-04-06T15:27:34;25.10;50.90
65752;DHT22;52486;51.098;13.770;2023-04-06T15:35:09;25.90;52.20
65752;DHT22;52486;51.098;13.770;2023-04-06T15:37:34;27.10;53.40
65752;DHT22;52486;51.098;13.770;2023-04-06T15:40:00;26.50;53.60
65752;DHT22;52486;51.098;13.770;2023-04-06T15:42:26;25.90;53.10
65752;DHT22;52486;51.098;13.770;2023-04-06T15:44:51;25.30;52.70
65752;DHT22;52486;51.098;13.770;2023-04-06T15:47:17;24.90;52.50
65752;DHT22;52486;51.098;13.770;2023-04-06T15:49:43;26.30;53.40
65752;DHT22;52486;51.098;13.770;2023-04-06T15:52:08;25.70;53.40
65752;DHT22;52486;51.098;13.770;2023-04-06T15:57:06;25.50;42.80
65752;DHT22;52486;51.098;13.770;2023-04-06T15:59:31;26.40;54.00
65752;DHT22;52486;51.098;13.770;2023-04-06T16:01:57;27.00;54.40
65752;DHT22;52486;51.098;13.770;2023-04-06T16:09:16;24.40;52.50
65752;DHT22;52486;51.098;13.770;2023-04-06T16:11:41;24.60;52.90
65752;DHT22;52486;51.098;13.770;2023-04-06T16:16:33;24.40;46.20
65752;DHT22;52486;51.098;13.770;2023-04-06T16:18:59;24.50;53.20
65752;DHT22;52486;51.098;13.770;2023-04-06T16:21:25;26.40;54.60
65752;DHT22;52486;51.098;13.770;2023-04-06T16:23:52;24.90;42.80
65752;DHT22;52486;51.098;13.770;2023-04-06T16:26:18;24.40;53.30
65752;DHT22;52486;51.098;13.770;2023-04-06T16:31:22;24.60;53.60
65752;DHT22;52486;51.098;13.770;2023-04-06T16:33:48;25.30;54.10
65752;DHT22;52486;51.098;13.770;2023-04-06T16:36:23;25.80;54.60
65752;DHT22;52486;51.098;13.770;2023-04-06T16:38:49;24.70;52.30
65752;DHT22;52486;51.098;13.770;2023-04-06T16:43:41;24.40;53.90
65752;DHT22;52486;51.098;13.770;2023-04-06T16:48:33;23.90;54.00
65752;DHT22;52486;51.098;13.770;2023-04-06T16:51:06;24.80;44.20
65752;DHT22;52486;51.098;13.770;2023-04-06T16:55:57;25.00;48.30
65752;DHT22;52486;51.098;13.770;2023-04-06T16:58:23;24.40;54.30
65752;DHT22;52486;51.098;13.770;2023-04-06T17:03:15;24.90;54.60
65752;DHT22;52486;51.098;13.770;2023-04-06T17:05:40;24.20;54.60
65752;DHT22;52486;51.098;13.770;2023-04-06T17:08:06;25.20;53.80
65752;DHT22;52486;51.098;13.770;2023-04-06T17:10:32;23.90;54.60
65752;DHT22;52486;51.098;13.770;2023-04-06T17:12:57;23.90;50.70
65752;DHT22;52486;51.098;13.770;2023-04-06T17:15:23;25.80;51.30
65752;DHT22;52486;51.098;13.770;2023-04-06T17:17:49;24.50;44.80
65752;DHT22;52486;51.098;13.770;2023-04-06T17:20:17;23.90;54.90
65752;DHT22;52486;51.098;13.770;2023-04-06T17:22:43;23.80;54.80
65752;DHT22;52486;51.098;13.770;2023-04-06T17:25:12;25.50;55.90
65752;DHT22;52486;51.098;13.770;2023-04-06T17:27:37;24.50;55.30
65752;DHT22;52486;51.098;13.770;2023-04-06T17:30:03;24.40;55.30
65752;DHT22;52486;51.098;13.770;2023-04-06T17:32:32;23.70;54.90
65752;DHT22;52486;51.098;13.770;2023-04-06T17:37:24;23.20;55.80
65752;DHT22;52486;51.098;13.770;2023-04-06T17:39:50;23.80;55.20
65752;DHT22;52486;51.098;13.770;2023-04-06T17:44:43;24.10;47.80
65752;DHT22;52486;51.098;13.770;2023-04-06T17:52:00;24.30;55.50
65752;DHT22;52486;51.098;13.770;2023-04-06T17:56:52;23.50;55.20
65752;DHT22;52486;51.098;13.770;2023-04-06T17:59:18;24.90;56.10
65752;DHT22;52486;51.098;13.770;2023-04-06T18:01:44;25.30;56.30